Time;durP1;ratioP1;P1;durP2;ratioP2;P2;SDS_P1;SDS_P2;PMS_P1;PMS_P2;Temp;Humidity;BMP_temperature;BMP_pressure;BME280_temperature;BME280_humidity;BME280_pressure;Samples;Min_cycle;Max_cycle;Signal;HPM_P1;HPM_P2
2023/04/23 00:02:13;;;;;;;22.83;7.45;;;9.90;99.90;;;;;;4934297;29;20050;-77
2023/04/23 00:04:52;;;;;;;18.77;7.85;;;9.90;99.90;;;;;;4955330;29;20057;-77
2023/04/23 00:07:21;;;;;;;14.43;7.40;;;9.80;99.90;;;;;;4953834;29;20069;-77
2023/04/23 00:09:52;;;;;;;14.93;7.13;;;9.80;99.90;;;;;;4954097;28;20051;-78
2023/04/23 00:12:21;;;;;;;17.08;7.43;;;9.80;99.90;;;;;;4936683;29;20078;-77
2023/04/23 00:14:49;;;;;;;15.55;8.05;;;9.80;99.90;;;;;;4954732;29;20058;-77
2023/04/23 00:17:16;;;;;;;18.42;6.97;;;9.80;99.90;;;;;;4937097;29;20055;-77
2023/04/23 00:19:44;;;;;;;19.23;8.02;;;9.80;99.90;;;;;;4938009;28;20063;-77
2023/04/23 00:22:13;;;;;;;19.40;8.80;;;9.80;99.90;;;;;;4957219;28;20058;-77
2023/04/23 00:24:40;;;;;;;20.98;8.00;;;9.80;99.90;;;;;;4936118;29;20043;-77
2023/04/23 00:27:08;;;;;;;28.08;8.63;;;9.80;99.90;;;;;;4953798;29;20547;-78
2023/04/23 00:29:35;;;;;;;40.53;10.07;;;9.80;99.90;;;;;;4931976;29;20066;-78
2023/04/23 00:32:03;;;;;;;36.92;9.00;;;9.70;99.90;;;;;;4955655;29;20125;-78
2023/04/23 00:34:31;;;;;;;27.77;8.77;;;9.70;99.90;;;;;;4936995;29;20075;-77
2023/04/23 00:36:58;;;;;;;24.15;8.02;;;9.70;99.90;;;;;;4963614;28;20565;-78
2023/04/23 00:39:27;;;;;;;31.75;9.32;;;9.70;99.90;;;;;;4939146;29;20047;-78
2023/04/23 00:41:54;;;;;;;20.77;8.20;;;9.60;99.90;;;;;;4953135;29;20133;-78
2023/04/23 00:44:23;;;;;;;30.88;8.23;;;9.60;99.90;;;;;;4951954;29;20051;-78
2023/04/23 00:46:51;;;;;;;23.75;8.07;;;9.60;99.90;;;;;;4953030;29;20051;-77
2023/04/23 00:49:20;;;;;;;30.92;8.10;;;9.50;99.90;;;;;;4933092;29;20051;-78
2023/04/23 00:51:51;;;;;;;40.28;9.77;;;9.50;99.90;;;;;;4953536;29;20165;-78
2023/04/23 00:54:19;;;;;;;39.03;8.05;;;9.50;99.90;;;;;;4951717;28;20054;-78
2023/04/23 00:56:48;;;;;;;45.13;9.80;;;9.50;99.90;;;;;;4915596;29;20561;-79
2023/04/23 00:59:16;;;;;;;37.75;8.88;;;9.40;99.90;;;;;;4949407;29;20436;-78
2023/04/23 01:01:44;;;;;;;36.97;8.80;;;9.40;99.90;;;;;;4952457;29;20043;-79
2023/04/23 01:04:15;;;;;;;36.75;7.60;;;9.40;99.90;;;;;;4934779;29;20492;-79
2023/04/23 01:06:45;;;;;;;25.60;6.80;;;9.40;99.90;;;;;;4949685;29;20058;-79
2023/04/23 01:09:13;;;;;;;29.55;6.65;;;9.40;99.90;;;;;;4918757;29;20062;-78
2023/04/23 01:11:44;;;;;;;19.73;6.07;;;9.40;99.90;;;;;;4935227;29;20463;-79
2023/04/23 01:14:12;;;;;;;23.60;6.53;;;9.40;99.90;;;;;;4950988;29;20091;-78
2023/04/23 01:16:40;;;;;;;17.10;6.53;;;9.40;99.90;;;;;;4952999;29;20055;-79
2023/04/23 01:19:10;;;;;;;18.52;5.90;;;9.40;99.90;;;;;;4951087;29;20579;-78
2023/04/23 01:21:40;;;;;;;10.88;4.35;;;9.30;99.90;;;;;;4935032;29;20146;-78
2023/04/23 01:24:10;;;;;;;10.93;4.38;;;9.30;99.90;;;;;;4950273;29;20134;-78
2023/04/23 01:26:39;;;;;;;14.52;4.72;;;9.30;99.90;;;;;;4936772;29;20098;-79
2023/04/23 01:29:08;;;;;;;11.77;3.45;;;9.20;99.90;;;;;;4950223;28;20066;-78
2023/04/23 01:31:36;;;;;;;8.40;3.20;;;9.20;99.90;;;;;;4944076;29;20056;-79
2023/04/23 01:34:04;;;;;;;6.40;3.20;;;9.20;99.90;;;;;;4940129;29;20043;-78
2023/04/23 01:36:33;;;;;;;9.25;4.13;;;9.10;99.90;;;;;;4936167;29;20061;-78
2023/04/23 01:39:00;;;;;;;7.05;3.70;;;9.20;99.90;;;;;;4933503;29;20103;-78
2023/04/23 01:41:31;;;;;;;8.80;3.58;;;9.10;99.90;;;;;;4934679;29;20102;-78
2023/04/23 01:43:59;;;;;;;11.70;3.70;;;9.10;99.90;;;;;;4949626;29;20099;-79
2023/04/23 01:46:27;;;;;;;18.15;3.90;;;9.00;99.90;;;;;;4953212;29;20153;-78
2023/04/23 01:48:56;;;;;;;15.23;4.45;;;9.00;99.90;;;;;;4951766;29;20130;-79
2023/04/23 01:51:24;;;;;;;16.83;4.70;;;8.90;99.90;;;;;;4947314;29;20056;-78
2023/04/23 01:53:52;;;;;;;19.77;4.68;;;8.80;99.90;;;;;;4933943;29;20086;-79
2023/04/23 01:56:24;;;;;;;15.77;5.07;;;8.80;99.90;;;;;;4933421;29;20051;-79
2023/04/23 01:58:53;;;;;;;18.58;4.63;;;8.80;99.90;;;;;;4951104;28;20061;-79
2023/04/23 02:01:20;;;;;;;15.25;4.03;;;8.70;99.90;;;;;;4942087;29;20175;-79
2023/04/23 02:03:50;;;;;;;8.88;4.25;;;8.70;99.90;;;;;;4934911;29;20050;-78
2023/04/23 02:06:17;;;;;;;10.02;3.50;;;8.70;99.90;;;;;;4950074;28;20043;-77
2023/04/23 02:08:45;;;;;;;15.30;3.55;;;8.70;99.90;;;;;;4948025;29;20091;-78
2023/04/23 02:11:13;;;;;;;6.10;3.38;;;8.70;99.90;;;;;;4949500;29;20098;-78
2023/04/23 02:13:41;;;;;;;4.07;2.28;;;8.70;99.90;;;;;;4932039;29;20051;-78
2023/04/23 02:16:11;;;;;;;9.45;3.08;;;8.80;99.90;;;;;;4918612;29;20055;-79
2023/04/23 02:18:39;;;;;;;4.07;2.45;;;8.80;99.90;;;;;;4916929;29;20051;-78
2023/04/23 02:21:07;;;;;;;6.93;2.72;;;8.70;99.90;;;;;;4917755;29;20115;-78
2023/04/23 02:23:34;;;;;;;5.57;2.33;;;8.70;99.90;;;;;;4933465;29;20051;-78
2023/04/23 02:26:02;;;;;;;9.43;2.70;;;8.70;99.90;;;;;;4950967;29;20051;-77
2023/04/23 02:28:30;;;;;;;4.90;2.20;;;8.70;99.90;;;;;;4942568;29;20062;-78
2023/04/23 02:30:57;;;;;;;5.72;2.17;;;8.70;99.90;;;;;;4947726;29;20043;-78
2023/04/23 02:33:26;;;;;;;3.60;2.08;;;8.80;99.90;;;;;;4950518;29;20051;-78
2023/04/23 02:35:53;;;;;;;4.53;2.10;;;8.80;99.90;;;;;;4933884;29;20142;-79
2023/04/23 02:38:21;;;;;;;6.55;2.95;;;8.80;99.90;;;;;;4927617;29;20118;-79
2023/04/23 02:40:50;;;;;;;6.97;3.40;;;8.90;99.90;;;;;;4951719;28;20098;-78
2023/04/23 02:43:18;;;;;;;20.35;3.60;;;8.90;99.90;;;;;;4933041;29;20472;-78
2023/04/23 02:45:45;;;;;;;12.85;4.28;;;8.80;99.90;;;;;;4933463;29;20431;-78
2023/04/23 02:48:15;;;;;;;11.05;4.43;;;8.80;99.90;;;;;;4952650;29;20145;-78
2023/04/23 02:50:43;;;;;;;6.47;3.85;;;8.80;99.90;;;;;;4951788;29;20051;-80
2023/04/23 02:53:11;;;;;;;12.65;4.40;;;8.70;99.90;;;;;;4933904;29;20583;-78
2023/04/23 02:55:39;;;;;;;6.40;3.75;;;8.70;99.90;;;;;;4935016;29;20135;-78
2023/04/23 02:58:06;;;;;;;17.90;4.00;;;8.70;99.90;;;;;;4949306;29;20563;-78
2023/04/23 03:00:36;;;;;;;7.90;3.30;;;8.70;99.90;;;;;;4934774;29;20047;-79
2023/04/23 03:03:03;;;;;;;11.75;4.07;;;8.70;99.90;;;;;;4933987;29;20052;-79
2023/04/23 03:05:31;;;;;;;7.72;4.35;;;8.80;99.90;;;;;;4937561;29;20062;-79
2023/04/23 03:07:59;;;;;;;10.55;3.92;;;8.70;99.90;;;;;;4919972;29;20051;-79
2023/04/23 03:10:27;;;;;;;10.82;4.78;;;8.70;99.90;;;;;;4950970;29;20146;-79
2023/04/23 03:12:56;;;;;;;7.78;3.05;;;8.70;99.90;;;;;;4932484;29;20513;-79
2023/04/23 03:15:24;;;;;;;12.80;4.00;;;8.70;99.90;;;;;;4941754;29;20051;-78
2023/04/23 03:17:52;;;;;;;9.80;4.25;;;8.70;99.90;;;;;;4936158;29;20047;-79
2023/04/23 03:20:20;;;;;;;15.32;4.75;;;8.60;99.90;;;;;;4955057;29;20539;-79
2023/04/23 03:22:48;;;;;;;11.52;4.00;;;8.60;99.90;;;;;;4934490;29;20054;-77
2023/04/23 03:25:18;;;;;;;8.02;4.07;;;8.60;99.90;;;;;;4938093;29;20126;-79
2023/04/23 03:27:45;;;;;;;9.38;3.60;;;8.70;99.90;;;;;;4954088;28;20062;-78
2023/04/23 03:30:13;;;;;;;8.65;2.80;;;8.70;99.90;;;;;;4922633;29;20098;-79
2023/04/23 03:32:41;;;;;;;6.07;2.75;;;8.70;99.90;;;;;;4935805;29;20055;-79
2023/04/23 03:35:09;;;;;;;16.67;3.47;;;8.70;99.90;;;;;;4935612;29;20058;-78
2023/04/23 03:37:40;;;;;;;9.63;3.13;;;8.70;99.90;;;;;;4953803;29;20499;-79
2023/04/23 03:40:09;;;;;;;7.22;3.92;;;8.70;99.90;;;;;;4936895;28;20061;-79
2023/04/23 03:42:41;;;;;;;11.60;3.53;;;8.70;99.90;;;;;;4930371;29;20051;-79
2023/04/23 03:45:12;;;;;;;4.45;3.65;;;8.70;99.90;;;;;;4937546;29;20065;-79
2023/04/23 03:47:40;;;;;;;5.15;3.67;;;8.70;99.90;;;;;;4920537;29;20531;-79
2023/04/23 03:50:11;;;;;;;6.05;3.60;;;8.70;99.90;;;;;;4932679;29;20424;-79
2023/04/23 03:52:39;;;;;;;16.88;4.03;;;8.80;99.90;;;;;;4922328;29;20046;-79
2023/04/23 03:55:11;;;;;;;13.75;4.18;;;8.80;99.90;;;;;;4951536;29;20081;-79
2023/04/23 03:57:44;;;;;;;15.48;4.47;;;8.90;99.90;;;;;;4938941;29;20100;-78
2023/04/23 04:00:25;;;;;;;9.13;4.32;;;8.90;99.90;;;;;;4933969;29;20055;-78
2023/04/23 04:02:53;;;;;;;6.00;3.70;;;9.00;99.90;;;;;;4950619;29;20066;-77
2023/04/23 04:05:22;;;;;;;11.32;4.32;;;9.00;99.90;;;;;;4953132;28;20047;-78
2023/04/23 04:07:50;;;;;;;9.18;4.65;;;9.10;99.90;;;;;;4952072;29;20529;-79
2023/04/23 04:10:18;;;;;;;8.07;4.05;;;9.10;99.90;;;;;;4919618;29;20046;-77
2023/04/23 04:12:47;;;;;;;10.18;3.15;;;9.20;99.90;;;;;;4956307;29;20074;-78
2023/04/23 04:15:15;;;;;;;7.68;3.00;;;9.20;99.90;;;;;;4954302;29;20449;-78
2023/04/23 04:17:44;;;;;;;7.35;2.63;;;9.30;99.90;;;;;;4932482;29;20428;-77
2023/04/23 04:20:13;;;;;;;12.05;2.65;;;9.30;99.90;;;;;;4951210;29;20485;-78
2023/04/23 04:22:40;;;;;;;3.92;1.60;;;9.30;99.90;;;;;;4937594;29;20047;-78
2023/04/23 04:25:08;;;;;;;4.43;1.83;;;9.40;99.90;;;;;;4953574;29;20055;-77
2023/04/23 04:27:36;;;;;;;4.95;1.73;;;9.40;99.90;;;;;;4951080;29;20047;-78
2023/04/23 04:30:07;;;;;;;3.50;1.80;;;9.40;99.90;;;;;;4953385;28;20047;-77
2023/04/23 04:32:34;;;;;;;7.40;1.48;;;9.50;99.90;;;;;;4954165;29;20548;-78
2023/04/23 04:35:02;;;;;;;5.97;1.95;;;9.50;99.90;;;;;;4934733;29;20070;-78
2023/04/23 04:37:31;;;;;;;12.00;1.63;;;9.50;99.90;;;;;;4945449;29;20051;-78
2023/04/23 04:40:00;;;;;;;1.58;1.10;;;9.50;99.90;;;;;;4953045;29;20523;-79
2023/04/23 04:42:27;;;;;;;3.08;1.33;;;9.50;99.90;;;;;;4938061;29;20051;-78
2023/04/23 04:44:57;;;;;;;4.32;1.30;;;9.50;99.90;;;;;;4935735;29;20039;-78
2023/04/23 04:47:26;;;;;;;5.07;1.42;;;9.50;99.90;;;;;;4922386;29;20114;-78
2023/04/23 04:49:56;;;;;;;6.05;1.58;;;9.60;99.90;;;;;;4937865;29;20063;-79
2023/04/23 04:52:24;;;;;;;5.35;1.70;;;9.60;99.90;;;;;;4958182;28;20067;-78
2023/04/23 04:54:51;;;;;;;1.80;1.15;;;9.60;99.90;;;;;;4942003;29;20083;-78
2023/04/23 04:57:21;;;;;;;4.38;1.55;;;9.60;99.90;;;;;;4921552;29;20146;-78
2023/04/23 04:59:49;;;;;;;5.25;1.60;;;9.60;99.90;;;;;;4953674;29;20142;-78
2023/04/23 05:02:16;;;;;;;2.60;1.42;;;9.60;99.90;;;;;;4951673;29;20047;-78
2023/04/23 05:04:45;;;;;;;3.72;1.38;;;9.70;99.90;;;;;;4937646;28;20511;-79
2023/04/23 05:07:12;;;;;;;2.75;1.40;;;9.70;99.90;;;;;;4953028;29;20058;-79
2023/04/23 05:09:41;;;;;;;5.97;1.38;;;9.70;99.90;;;;;;4950238;28;20083;-78
2023/04/23 05:12:08;;;;;;;5.45;1.40;;;9.70;99.90;;;;;;4944428;28;20055;-79
2023/04/23 05:14:36;;;;;;;3.22;1.40;;;9.80;99.90;;;;;;4941203;29;20056;-78
2023/04/23 05:17:04;;;;;;;2.38;1.10;;;9.80;99.90;;;;;;4936112;29;20114;-79
2023/04/23 05:19:31;;;;;;;1.73;1.38;;;9.80;99.90;;;;;;4936674;29;20087;-78
2023/04/23 05:22:02;;;;;;;3.28;1.55;;;9.80;99.90;;;;;;4930130;29;20058;-78
2023/04/23 05:24:29;;;;;;;3.40;1.33;;;9.90;99.90;;;;;;4945165;29;20588;-78
2023/04/23 05:26:57;;;;;;;6.45;1.52;;;9.90;99.90;;;;;;4935703;29;20054;-78
2023/04/23 05:29:24;;;;;;;6.60;1.73;;;10.00;99.90;;;;;;4934362;29;20047;-78
2023/04/23 05:31:52;;;;;;;2.83;1.75;;;10.40;99.90;;;;;;4949288;28;20512;-79
2023/04/23 05:34:19;;;;;;;2.78;1.40;;;11.00;99.90;;;;;;4960428;28;20055;-79
2023/04/23 05:36:47;;;;;;;6.70;1.67;;;11.70;99.90;;;;;;4952892;28;20059;-79
2023/04/23 05:39:15;;;;;;;2.95;1.70;;;12.30;99.90;;;;;;4947870;29;20063;-80
2023/04/23 05:41:43;;;;;;;5.00;1.73;;;12.80;99.90;;;;;;4929891;29;20051;-78
2023/04/23 05:44:11;;;;;;;2.90;1.65;;;13.30;99.90;;;;;;4935434;29;20066;-80
2023/04/23 05:46:40;;;;;;;3.47;1.45;;;13.70;99.90;;;;;;4935067;29;20141;-80
2023/04/23 05:49:08;;;;;;;3.88;1.58;;;14.20;99.90;;;;;;4928389;29;20062;-79
2023/04/23 05:51:36;;;;;;;5.47;1.42;;;14.70;99.30;;;;;;4949133;28;20043;-80
2023/04/23 05:54:05;;;;;;;7.10;2.00;;;15.10;95.90;;;;;;4948941;28;20051;-80
2023/04/23 05:56:35;;;;;;;6.90;2.30;;;;;;;;;;4952708;29;20161;-79
2023/04/23 05:59:02;;;;;;;6.07;1.50;;;15.60;92.00;;;;;;4944636;29;20055;-81
2023/04/23 06:01:30;;;;;;;2.53;1.83;;;16.00;91.50;;;;;;4914054;29;20110;-79
2023/04/23 06:03:58;;;;;;;7.35;1.52;;;16.40;89.40;;;;;;4949752;28;20047;-79
2023/04/23 06:06:26;;;;;;;5.93;2.10;;;16.70;87.60;;;;;;4951633;28;20083;-79
2023/04/23 06:08:54;;;;;;;6.53;2.30;;;16.90;85.30;;;;;;4953054;28;20051;-82
2023/04/23 06:11:22;;;;;;;11.15;2.42;;;17.10;83.90;;;;;;4944853;29;20510;-81
2023/04/23 06:13:55;;;;;;;6.35;1.80;;;17.20;81.80;;;;;;4941621;29;20082;-81
2023/04/23 06:16:23;;;;;;;6.53;2.40;;;17.30;80.60;;;;;;4929337;29;20047;-79
2023/04/23 06:18:55;;;;;;;9.15;1.90;;;17.30;79.90;;;;;;4918584;29;20106;-80
2023/04/23 06:21:23;;;;;;;5.80;1.55;;;17.40;79.00;;;;;;4953073;29;20073;-81
2023/04/23 06:23:53;;;;;;;7.47;2.38;;;17.60;77.30;;;;;;4960594;28;20054;-79
2023/04/23 06:26:21;;;;;;;5.88;1.80;;;17.80;76.80;;;;;;4930847;28;20083;-79
2023/04/23 06:28:52;;;;;;;2.75;1.67;;;17.80;76.30;;;;;;4924687;29;20051;-78
2023/04/23 06:31:31;;;;;;;4.95;1.92;;;18.10;75.10;;;;;;4921444;29;20047;-80
2023/04/23 06:33:59;;;;;;;8.80;2.03;;;18.50;73.10;;;;;;4928489;29;20050;-80
2023/04/23 06:36:26;;;;;;;7.50;1.90;;;18.70;71.60;;;;;;4931815;29;20142;-82
2023/04/23 06:38:54;;;;;;;9.55;1.98;;;18.90;70.60;;;;;;4929572;29;20051;-81
2023/04/23 06:41:22;;;;;;;9.40;1.95;;;19.30;69.50;;;;;;4932269;29;20083;-80
2023/04/23 06:44:02;;;;;;;8.00;1.90;;;19.50;67.20;;;;;;4925517;28;20047;-80
2023/04/23 06:46:36;;;;;;;5.75;1.88;;;19.80;67.10;;;;;;4972637;28;20050;-81
2023/04/23 06:49:04;;;;;;;8.27;2.03;;;19.90;65.60;;;;;;4939040;29;20058;-82
2023/04/23 06:51:32;;;;;;;7.63;2.53;;;20.20;64.90;;;;;;4935126;29;20039;-79
2023/04/23 06:53:59;;;;;;;7.88;2.03;;;20.20;64.80;;;;;;4930062;29;20047;-79
2023/04/23 06:56:27;;;;;;;5.28;2.17;;;20.50;64.30;;;;;;4948691;29;20048;-81
2023/04/23 06:58:55;;;;;;;7.50;2.22;;;20.80;62.80;;;;;;4946049;28;20125;-82
2023/04/23 07:01:24;;;;;;;8.10;2.50;;;21.10;61.90;;;;;;4932953;29;20047;-81
2023/04/23 07:03:53;;;;;;;10.20;2.53;;;21.40;60.40;;;;;;4921021;29;20056;-80
2023/04/23 07:06:20;;;;;;;7.18;2.05;;;21.50;60.00;;;;;;4949106;29;20043;-79
2023/04/23 07:08:48;;;;;;;9.27;2.15;;;21.70;59.40;;;;;;4933862;29;20057;-79
2023/04/23 07:11:16;;;;;;;10.57;2.33;;;21.90;58.80;;;;;;4932597;29;20154;-79
2023/04/23 07:13:43;;;;;;;6.13;1.85;;;22.10;58.30;;;;;;4951704;29;20051;-82
2023/04/23 07:16:14;;;;;;;6.10;1.98;;;22.50;57.50;;;;;;4945417;29;20505;-77
2023/04/23 07:18:43;;;;;;;6.30;2.40;;;22.80;57.30;;;;;;4910584;29;20085;-80
2023/04/23 07:21:11;;;;;;;7.07;2.03;;;23.00;55.70;;;;;;4949843;28;20095;-85
2023/04/23 07:23:38;;;;;;;5.80;2.15;;;23.10;55.40;;;;;;4952104;29;20051;-84
2023/04/23 07:26:05;;;;;;;4.43;2.45;;;23.50;54.80;;;;;;4935755;29;20386;-81
2023/04/23 07:28:33;;;;;;;5.38;2.47;;;23.70;54.20;;;;;;4930626;29;20178;-83
2023/04/23 07:31:02;;;;;;;8.23;1.92;;;23.90;53.70;;;;;;4931370;29;20043;-84
2023/04/23 07:33:29;;;;;;;11.98;2.70;;;23.90;52.70;;;;;;4953331;28;20106;-86
2023/04/23 07:35:58;;;;;;;7.40;2.10;;;24.00;52.80;;;;;;4935245;29;20082;-83
2023/04/23 07:38:26;;;;;;;10.73;3.78;;;24.40;52.00;;;;;;4921611;29;20059;-82
2023/04/23 07:40:54;;;;;;;11.80;2.70;;;24.80;51.70;;;;;;4936210;29;20055;-86
2023/04/23 07:43:22;;;;;;;4.90;2.15;;;25.30;50.80;;;;;;4935616;29;20070;-86
2023/04/23 07:45:52;;;;;;;8.07;2.42;;;25.60;49.70;;;;;;4937334;28;20082;-86
2023/04/23 07:48:20;;;;;;;5.88;2.30;;;25.70;49.10;;;;;;4931827;29;20051;-79
2023/04/23 07:50:47;;;;;;;11.18;2.75;;;25.70;49.20;;;;;;4930860;29;20039;-79
2023/04/23 07:53:17;;;;;;;3.55;2.38;;;25.80;48.70;;;;;;4937248;28;21012;-80
2023/04/23 07:55:44;;;;;;;9.57;2.40;;;25.90;48.40;;;;;;4923462;28;20150;-80
2023/04/23 07:58:11;;;;;;;7.28;2.38;;;26.00;48.00;;;;;;4942517;28;20475;-81
2023/04/23 08:00:39;;;;;;;8.20;2.85;;;26.20;47.70;;;;;;4959268;28;20059;-78
2023/04/23 08:03:09;;;;;;;7.40;1.83;;;26.20;47.60;;;;;;4918862;28;20142;-81
2023/04/23 08:05:39;;;;;;;7.55;2.38;;;26.10;46.90;;;;;;4915071;28;20059;-81
2023/04/23 08:08:13;;;;;;;5.80;2.20;;;26.10;47.10;;;;;;4952524;28;20051;-82
2023/04/23 08:10:42;;;;;;;10.55;2.90;;;26.00;46.60;;;;;;4936619;29;20467;-83
2023/04/23 08:13:10;;;;;;;5.35;1.90;;;26.20;46.40;;;;;;4934160;29;20113;-85
2023/04/23 08:15:37;;;;;;;8.85;2.08;;;26.10;46.10;;;;;;4950093;28;20043;-82
2023/04/23 08:18:06;;;;;;;10.85;2.45;;;26.20;46.80;;;;;;4952792;28;20110;-84
2023/04/23 08:20:35;;;;;;;3.72;1.65;;;26.60;46.30;;;;;;4954466;29;20090;-84
2023/04/23 08:23:04;;;;;;;8.63;1.95;;;26.80;45.10;;;;;;4954589;28;20062;-81
2023/04/23 08:25:32;;;;;;;6.60;1.83;;;27.20;45.50;;;;;;4946755;29;20043;-84
2023/04/23 08:28:05;;;;;;;5.85;2.67;;;27.50;44.60;;;;;;4949548;28;20110;-82
2023/04/23 08:30:33;;;;;;;3.67;2.10;;;27.60;44.80;;;;;;4950699;29;20221;-84
2023/04/23 08:33:00;;;;;;;5.15;1.80;;;28.00;44.60;;;;;;4938329;29;20035;-83
2023/04/23 08:35:28;;;;;;;5.55;1.60;;;28.10;43.80;;;;;;4951607;29;20385;-85
2023/04/23 08:37:56;;;;;;;3.42;1.65;;;28.30;43.70;;;;;;4947186;29;20051;-84
2023/04/23 08:40:25;;;;;;;8.38;2.05;;;28.50;43.00;;;;;;4934011;29;20047;-81
2023/04/23 08:43:01;;;;;;;10.02;2.55;;;28.50;43.10;;;;;;4930401;29;20044;-84
2023/04/23 08:45:31;;;;;;;9.95;2.22;;;28.70;42.70;;;;;;4943184;29;20462;-86
2023/04/23 08:48:00;;;;;;;6.03;1.85;;;28.90;42.70;;;;;;4953877;28;20512;-84
2023/04/23 08:50:29;;;;;;;8.25;1.80;;;29.00;42.40;;;;;;4955382;29;20078;-86
2023/04/23 08:52:59;;;;;;;6.43;1.90;;;29.40;41.90;;;;;;4937084;29;20048;-83
2023/04/23 08:55:27;;;;;;;4.72;2.00;;;29.50;41.60;;;;;;4947910;29;20085;-85
2023/04/23 08:58:00;;;;;;;4.75;1.92;;;29.60;41.20;;;;;;4934805;29;20051;-81
2023/04/23 09:00:27;;;;;;;5.50;2.13;;;29.60;41.20;;;;;;4949654;28;20426;-78
2023/04/23 09:02:56;;;;;;;3.53;1.83;;;29.80;41.30;;;;;;4953619;28;20409;-80
2023/04/23 09:05:23;;;;;;;5.03;1.73;;;29.70;40.70;;;;;;4949557;29;20055;-82
2023/04/23 09:07:52;;;;;;;5.45;2.10;;;29.50;40.90;;;;;;4936959;29;20448;-81
2023/04/23 09:10:20;;;;;;;5.50;1.70;;;29.60;41.30;;;;;;4948818;28;20059;-81
2023/04/23 09:12:47;;;;;;;3.20;1.52;;;29.90;40.60;;;;;;4932189;29;20929;-83
2023/04/23 09:15:17;;;;;;;5.95;1.70;;;30.20;40.20;;;;;;4947913;28;20411;-84
2023/04/23 09:17:50;;;;;;;6.68;1.88;;;30.20;39.80;;;;;;4952937;28;20142;-84
2023/04/23 09:20:25;;;;;;;4.03;1.05;;;30.00;40.10;;;;;;4919263;29;20542;-82
2023/04/23 09:22:58;;;;;;;4.75;1.85;;;30.20;39.70;;;;;;4946783;28;20054;-83
2023/04/23 09:25:27;;;;;;;6.10;1.63;;;30.30;39.80;;;;;;4914546;29;20051;-90
2023/04/23 09:27:59;;;;;;;2.28;1.58;;;30.50;40.60;;;;;;4953779;28;20082;-88
2023/04/23 09:30:28;;;;;;;5.70;1.95;;;30.40;39.50;;;;;;4948470;28;20591;-80
2023/04/23 09:32:57;;;;;;;3.30;1.60;;;30.40;40.50;;;;;;4948449;28;20070;-80
2023/04/23 09:35:28;;;;;;;4.40;1.73;;;30.50;39.50;;;;;;4922840;29;20429;-83
2023/04/23 09:37:56;;;;;;;2.88;1.33;;;30.60;39.70;;;;;;4917083;28;20516;-82
2023/04/23 09:40:25;;;;;;;9.20;1.80;;;30.90;39.60;;;;;;4932349;29;20285;-83
2023/04/23 09:42:53;;;;;;;1.98;1.77;;;30.90;39.20;;;;;;4921193;29;20058;-83
2023/04/23 09:45:21;;;;;;;7.43;2.13;;;31.00;38.90;;;;;;4946981;29;20082;-83
2023/04/23 09:47:52;;;;;;;13.50;2.58;;;31.20;39.10;;;;;;4935234;29;20102;-81
2023/04/23 09:50:20;;;;;;;4.65;1.80;;;31.40;39.00;;;;;;4940136;28;20094;-83
2023/04/23 09:52:55;;;;;;;12.10;2.60;;;31.20;38.90;;;;;;4950999;28;20047;-82
2023/04/23 09:55:34;;;;;;;8.20;2.10;;;31.40;38.80;;;;;;4944546;29;20039;-81
2023/04/23 09:58:03;;;;;;;4.97;2.15;;;31.20;38.90;;;;;;4950896;28;20058;-83
2023/04/23 10:00:35;;;;;;;4.15;2.00;;;31.00;38.70;;;;;;4944462;28;20097;-84
2023/04/23 10:03:06;;;;;;;5.03;2.10;;;30.80;39.60;;;;;;4942321;29;20047;-85
2023/04/23 10:05:41;;;;;;;3.20;2.13;;;30.80;39.20;;;;;;4936717;28;20138;-83
2023/04/23 10:08:14;;;;;;;7.97;2.17;;;30.70;39.30;;;;;;4943907;29;20161;-85
2023/04/23 10:10:44;;;;;;;3.65;1.80;;;30.70;39.30;;;;;;4945727;29;20134;-84
2023/04/23 10:13:12;;;;;;;10.90;2.22;;;30.10;39.50;;;;;;4948673;28;20052;-83
2023/04/23 10:15:39;;;;;;;9.05;2.10;;;29.50;40.30;;;;;;4950609;28;20043;-83
2023/04/23 10:18:10;;;;;;;4.20;2.20;;;29.60;40.00;;;;;;4958483;28;20476;-84
2023/04/23 10:20:39;;;;;;;3.92;2.15;;;30.00;39.50;;;;;;4951060;29;20114;-84
2023/04/23 10:23:11;;;;;;;6.18;2.20;;;30.30;39.50;;;;;;4946607;28;20071;-83
2023/04/23 10:28:59;;;;;;;5.15;1.95;;;30.40;39.70;;;;;;4946220;28;20134;-85
2023/04/23 10:31:45;;;;;;;3.45;1.67;;;31.10;38.70;;;;;;4933940;28;20086;-88
2023/04/23 10:34:28;;;;;;;7.50;2.30;;;31.50;38.20;;;;;;4926607;29;20047;-90
2023/04/23 10:37:01;;;;;;;4.25;1.90;;;32.00;37.90;;;;;;4950575;28;20055;-83
2023/04/23 10:39:55;;;;;;;2.38;1.90;;;32.30;37.40;;;;;;4895114;29;20047;-83
2023/04/23 10:42:26;;;;;;;4.07;1.73;;;32.20;37.20;;;;;;4940626;28;20087;-84
2023/04/23 10:44:59;;;;;;;2.63;1.67;;;32.30;37.00;;;;;;4905916;29;20057;-84
2023/04/23 10:47:26;;;;;;;7.22;1.80;;;32.20;36.70;;;;;;4934627;29;20066;-84
2023/04/23 10:49:55;;;;;;;8.25;2.00;;;31.70;37.50;;;;;;4935048;29;20058;-83
2023/04/23 10:52:47;;;;;;;4.20;1.83;;;31.40;37.70;;;;;;4949117;28;20412;-83
2023/04/23 10:55:44;;;;;;;5.57;2.58;;;31.00;37.90;;;;;;4933026;29;20054;-82
2023/04/23 10:58:23;;;;;;;17.02;2.17;;;30.30;38.60;;;;;;4951258;28;20570;-84
2023/04/23 11:01:17;;;;;;;2.55;1.83;;;30.00;39.50;;;;;;4946672;29;20134;-82
2023/04/23 11:03:50;;;;;;;3.55;1.55;;;30.00;39.00;;;;;;4965963;28;20051;-82
2023/04/23 11:07:07;;;;;;;4.63;1.70;;;30.20;38.90;;;;;;4949724;29;20450;-85
2023/04/23 11:09:59;;;;;;;;;;;;;;;;;;;;;
2023/04/23 11:13:11;;;;;;;;;;;;;;;;;;;;;
2023/04/23 11:16:17;;;;;;;4.07;1.70;;;31.40;38.50;;;;;;4949535;28;20062;-87
2023/04/23 11:19:12;;;;;;;5.55;1.60;;;32.20;37.60;;;;;;4945996;28;20070;-86
2023/04/23 11:22:09;;;;;;;4.53;1.75;;;32.50;37.10;;;;;;4913497;28;20054;-87
2023/04/23 11:24:55;;;;;;;6.07;2.33;;;32.50;37.10;;;;;;4932743;28;20078;-88
2023/04/23 11:28:01;;;;;;;7.38;1.77;;;32.60;37.10;;;;;;4946615;28;20055;-89
2023/04/23 11:30:54;;;;;;;9.35;1.65;;;33.00;36.50;;;;;;4914697;29;20043;-88
2023/04/23 11:34:21;;;;;;;7.47;1.58;;;33.30;36.50;;;;;;4962089;28;20063;-89
2023/04/23 11:36:52;;;;;;;7.07;1.63;;;33.70;35.80;;;;;;4932248;28;20141;-89
2023/04/23 11:39:22;;;;;;;2.53;1.40;;;33.80;35.90;;;;;;4950940;28;20063;-89
2023/04/23 11:41:51;;;;;;;9.05;2.00;;;34.10;35.30;;;;;;4955490;28;20059;-88
2023/04/23 11:44:21;;;;;;;6.65;1.98;;;34.00;35.40;;;;;;4927356;29;20047;-92
2023/04/23 11:46:51;;;;;;;4.00;1.52;;;33.90;35.80;;;;;;4952829;28;20105;-89
2023/04/23 11:49:22;;;;;;;6.65;2.38;;;33.70;35.50;;;;;;4955001;28;20055;-86
2023/04/23 11:51:51;;;;;;;14.23;2.50;;;33.90;36.20;;;;;;4918211;29;20087;-85
2023/04/23 11:54:35;;;;;;;5.15;1.77;;;34.10;35.30;;;;;;4945194;29;20074;-90
2023/04/23 11:57:32;;;;;;;3.40;1.85;;;34.30;35.90;;;;;;4946948;28;20102;-89
2023/04/23 12:00:03;;;;;;;6.05;1.75;;;34.40;35.40;;;;;;4946700;29;20047;-88
2023/04/23 12:02:51;;;;;;;6.68;1.60;;;34.70;35.60;;;;;;4945280;29;20055;-86
2023/04/23 12:05:21;;;;;;;3.65;0.95;;;34.80;34.80;;;;;;4938834;29;20051;-87
2023/04/23 12:07:56;;;;;;;5.07;1.30;;;35.10;34.90;;;;;;4947896;28;20110;-87
2023/04/23 12:10:24;;;;;;;2.67;1.48;;;35.20;34.40;;;;;;4941820;29;20051;-87
2023/04/23 12:12:52;;;;;;;4.72;1.20;;;35.10;34.80;;;;;;4954623;28;20145;-86
2023/04/23 12:15:22;;;;;;;4.38;1.48;;;35.10;34.10;;;;;;4938164;28;20142;-87
2023/04/23 12:17:52;;;;;;;3.78;1.77;;;35.00;34.40;;;;;;4947216;28;20058;-86
2023/04/23 12:20:21;;;;;;;8.07;1.50;;;34.90;33.80;;;;;;4954611;29;20055;-87
2023/04/23 12:22:49;;;;;;;5.10;1.45;;;35.30;33.70;;;;;;4944873;28;20577;-86
2023/04/23 12:25:21;;;;;;;5.35;1.60;;;35.20;33.80;;;;;;4955121;29;20055;-88
2023/04/23 12:27:49;;;;;;;4.50;1.73;;;35.40;33.90;;;;;;4950995;28;20413;-86
2023/04/23 12:30:16;;;;;;;3.78;1.60;;;35.10;33.40;;;;;;4946363;29;20058;-87
2023/04/23 12:32:45;;;;;;;3.35;1.30;;;35.10;33.60;;;;;;4934141;29;20039;-88
2023/04/23 12:35:13;;;;;;;5.55;1.42;;;35.00;33.40;;;;;;4967479;28;20047;-86
2023/04/23 12:37:41;;;;;;;13.93;2.20;;;35.10;33.40;;;;;;4944906;28;20054;-82
2023/04/23 12:40:10;;;;;;;2.88;1.13;;;35.10;33.50;;;;;;4948970;28;20531;-83
2023/04/23 12:42:37;;;;;;;3.17;1.45;;;35.00;32.60;;;;;;4916519;29;20043;-82
2023/04/23 12:45:10;;;;;;;5.28;1.48;;;34.80;33.40;;;;;;4948793;29;20059;-81
2023/04/23 12:47:37;;;;;;;4.30;1.60;;;34.80;33.30;;;;;;4955130;28;20094;-83
2023/04/23 12:50:08;;;;;;;6.18;1.23;;;34.80;33.70;;;;;;4952006;28;20062;-83
2023/04/23 12:52:37;;;;;;;6.53;1.27;;;35.00;33.40;;;;;;4929920;28;20074;-87
2023/04/23 12:55:05;;;;;;;4.18;1.33;;;35.10;32.90;;;;;;4959816;28;20135;-82
2023/04/23 12:57:33;;;;;;;2.45;1.25;;;35.10;32.80;;;;;;4951469;28;20055;-85
2023/04/23 13:00:04;;;;;;;2.47;1.48;;;34.80;33.70;;;;;;4931781;28;20047;-86
2023/04/23 13:02:33;;;;;;;3.13;1.50;;;34.80;33.10;;;;;;4952550;28;20470;-85
2023/04/23 13:05:01;;;;;;;3.45;1.40;;;34.70;32.90;;;;;;4934178;29;20142;-84
2023/04/23 13:07:32;;;;;;;3.90;1.40;;;34.80;33.70;;;;;;4922754;29;20500;-85
2023/04/23 13:09:59;;;;;;;6.68;1.40;;;34.90;33.70;;;;;;4938248;29;20086;-84
2023/04/23 13:12:27;;;;;;;6.03;1.83;;;34.80;33.70;;;;;;4943224;28;20146;-82